Lake Worth, FL

2:53 AM EST on December 08, 2016 (GMT -0500)
Island Estates | | Change Station

Elev 45 ft 26.57 °N, 80.08 °W | Updated 2 minutes ago

Mostly Cloudy
Mostly Cloudy
73.0 °F
Feels Like 71 °F
N
0.0
Wind Variable Wind from NE
Gusts 0.0 mph

Today
High -- | Low -- °F
--% Chance of Precip.
Yesterday
High -- | Low -- °F
Precip. -- in
Pressure 30.06 in
Visibility 10.0 miles
Clouds Few 3000 ft
Scattered Clouds 8000 ft
Scattered Clouds 25000 ft
Heat Index 71 °F
Dew Point 70 °F
Humidity 90%
Rainfall 0.00 in
Snow Depth Not available.
6:56 AM 5:28 PM
First Quarter, 61% visible
METAR KPBI 080653Z 00000KT 10SM FEW030 SCT080 SCT250 22/21 A3006 RMK AO2 SLP178 T02170206
Pressure 30.06 in
Visibility 10.0 miles
Clouds Few 3000 ft
Scattered Clouds 8000 ft
Scattered Clouds 25000 ft
Heat Index 71 °F
Dew Point 70 °F
Humidity 90%
Rainfall 0.00 in
Snow Depth Not available.
6:56 AM 5:28 PM
First Quarter, 61% visible
METAR KPBI 080653Z 00000KT 10SM FEW030 SCT080 SCT250 22/21 A3006 RMK AO2 SLP178 T02170206

10-Day Weather Forecast

Almanac

Astronomy

Dec. 08, 2016 Rise Set
Actual Time
Civil Twilight
Nautical Twilight
Astronomical Twilight
Moon
Length of Visible Light
Length of Day
Tomorrow will be .
, % of the Moon is Illuminated

Today's Extremes

State Highs State Lows

Community

WunderPhotos

Upload Photos

1,956,259 photos uploaded!

WunderBlog® & News

Nearby

Air Quality

  Air Quality AQ Index Pollutant
Not available.

Snow Depth

Station Depth Elevation

Earthquake Activity

City Distance Mag. Time & Date
Minimum magnitude displayed is 2.5.

Coastal Water Temperatures

Place Temperature

Stations

Nearby Weather Stations

Station Location Temp. Windchill Dew Point Humidity Wind Precip. Elev Updated Type
                   

Watches & Warnings

There are currently no watches in effect.